sensor_id;sensor_type;location;lat;lon;timestamp;temperature;humidity
27544;DHT22;17996;51.056;3.656;2022-12-18T00:00:47;-2.30;99.90
27544;DHT22;17996;51.056;3.656;2022-12-18T00:03:14;-2.50;99.90
27544;DHT22;17996;51.056;3.656;2022-12-18T00:05:50;-2.50;99.90
27544;DHT22;17996;51.056;3.656;2022-12-18T00:08:17;-2.50;99.90
27544;DHT22;17996;51.056;3.656;2022-12-18T00:10:44;-2.50;99.90
27544;DHT22;17996;51.056;3.656;2022-12-18T00:13:10;-2.50;99.90
27544;DHT22;17996;51.056;3.656;2022-12-18T00:15:38;-2.50;99.90
27544;DHT22;17996;51.056;3.656;2022-12-18T00:18:05;-2.50;99.90
27544;DHT22;17996;51.056;3.656;2022-12-18T00:20:31;-2.50;99.90
27544;DHT22;17996;51.056;3.656;2022-12-18T00:22:56;-2.50;99.90
27544;DHT22;17996;51.056;3.656;2022-12-18T00:25:22;-2.50;99.90
27544;DHT22;17996;51.056;3.656;2022-12-18T00:27:48;-2.50;99.90
27544;DHT22;17996;51.056;3.656;2022-12-18T00:30:14;-2.50;99.90
27544;DHT22;17996;51.056;3.656;2022-12-18T00:32:40;-2.50;99.90
27544;DHT22;17996;51.056;3.656;2022-12-18T00:35:06;-2.50;99.90
27544;DHT22;17996;51.056;3.656;2022-12-18T00:37:33;-2.50;99.90
27544;DHT22;17996;51.056;3.656;2022-12-18T00:39:59;-2.50;99.90
27544;DHT22;17996;51.056;3.656;2022-12-18T00:42:25;-2.60;99.90
27544;DHT22;17996;51.056;3.656;2022-12-18T00:45:14;-2.60;99.90
27544;DHT22;17996;51.056;3.656;2022-12-18T00:47:40;-2.50;99.90
27544;DHT22;17996;51.056;3.656;2022-12-18T00:50:06;-2.60;99.90
27544;DHT22;17996;51.056;3.656;2022-12-18T00:52:32;-2.60;99.90
27544;DHT22;17996;51.056;3.656;2022-12-18T00:54:57;-2.60;99.90
27544;DHT22;17996;51.056;3.656;2022-12-18T00:57:23;-2.60;99.90
27544;DHT22;17996;51.056;3.656;2022-12-18T00:59:48;-2.60;99.90
27544;DHT22;17996;51.056;3.656;2022-12-18T01:02:14;-2.60;99.90
27544;DHT22;17996;51.056;3.656;2022-12-18T01:04:40;-2.60;99.90
27544;DHT22;17996;51.056;3.656;2022-12-18T01:07:05;-2.60;99.90
27544;DHT22;17996;51.056;3.656;2022-12-18T01:09:31;-2.60;99.90
27544;DHT22;17996;51.056;3.656;2022-12-18T01:11:57;-2.60;99.90
27544;DHT22;17996;51.056;3.656;2022-12-18T01:14:22;-2.60;99.90
27544;DHT22;17996;51.056;3.656;2022-12-18T01:16:48;-2.60;99.90
27544;DHT22;17996;51.056;3.656;2022-12-18T01:19:13;-2.70;99.90
27544;DHT22;17996;51.056;3.656;2022-12-18T01:21:39;-2.70;99.90
27544;DHT22;17996;51.056;3.656;2022-12-18T01:24:05;-2.70;99.90
27544;DHT22;17996;51.056;3.656;2022-12-18T01:26:31;-2.70;99.90
27544;DHT22;17996;51.056;3.656;2022-12-18T01:28:57;-2.70;99.90
27544;DHT22;17996;51.056;3.656;2022-12-18T01:31:28;-2.70;99.90
27544;DHT22;17996;51.056;3.656;2022-12-18T01:33:54;-2.70;99.90
27544;DHT22;17996;51.056;3.656;2022-12-18T01:36:24;-2.70;99.90
27544;DHT22;17996;51.056;3.656;2022-12-18T01:38:51;-2.70;99.90
27544;DHT22;17996;51.056;3.656;2022-12-18T01:41:19;-2.70;99.90
27544;DHT22;17996;51.056;3.656;2022-12-18T01:43:56;-2.70;99.90
27544;DHT22;17996;51.056;3.656;2022-12-18T01:46:24;-2.70;99.90
27544;DHT22;17996;51.056;3.656;2022-12-18T01:48:59;-2.70;99.90
27544;DHT22;17996;51.056;3.656;2022-12-18T01:51:27;-2.80;99.90
27544;DHT22;17996;51.056;3.656;2022-12-18T01:53:52;-2.80;99.90
27544;DHT22;17996;51.056;3.656;2022-12-18T01:56:20;-2.80;99.90
27544;DHT22;17996;51.056;3.656;2022-12-18T01:58:52;-2.80;99.90
27544;DHT22;17996;51.056;3.656;2022-12-18T02:01:23;-2.80;99.90
27544;DHT22;17996;51.056;3.656;2022-12-18T02:03:49;-2.70;99.90
27544;DHT22;17996;51.056;3.656;2022-12-18T02:06:36;-2.80;99.90
27544;DHT22;17996;51.056;3.656;2022-12-18T02:09:20;-2.80;99.90
27544;DHT22;17996;51.056;3.656;2022-12-18T02:11:59;-2.80;99.90
27544;DHT22;17996;51.056;3.656;2022-12-18T02:14:39;-2.80;99.90
27544;DHT22;17996;51.056;3.656;2022-12-18T02:17:21;-2.90;99.90
27544;DHT22;17996;51.056;3.656;2022-12-18T02:20:28;-2.80;99.90
27544;DHT22;17996;51.056;3.656;2022-12-18T02:28:46;-3.00;99.90
27544;DHT22;17996;51.056;3.656;2022-12-18T02:31:19;-2.90;99.90
27544;DHT22;17996;51.056;3.656;2022-12-18T02:33:47;-3.00;99.90
27544;DHT22;17996;51.056;3.656;2022-12-18T02:36:16;-3.00;99.90
27544;DHT22;17996;51.056;3.656;2022-12-18T02:38:44;-3.00;99.90
27544;DHT22;17996;51.056;3.656;2022-12-18T02:41:11;-3.00;99.90
27544;DHT22;17996;51.056;3.656;2022-12-18T02:43:38;-3.00;99.90
27544;DHT22;17996;51.056;3.656;2022-12-18T02:51:55;-3.00;99.90
27544;DHT22;17996;51.056;3.656;2022-12-18T02:54:46;-3.00;99.90
27544;DHT22;17996;51.056;3.656;2022-12-18T03:02:50;-3.10;99.90
27544;DHT22;17996;51.056;3.656;2022-12-18T03:05:36;-3.10;99.90
27544;DHT22;17996;51.056;3.656;2022-12-18T03:08:18;-3.10;99.90
27544;DHT22;17996;51.056;3.656;2022-12-18T03:11:02;-3.20;99.90
27544;DHT22;17996;51.056;3.656;2022-12-18T03:13:36;-3.20;99.90
27544;DHT22;17996;51.056;3.656;2022-12-18T03:16:03;-3.20;99.90
27544;DHT22;17996;51.056;3.656;2022-12-18T03:21:05;-3.40;99.90
27544;DHT22;17996;51.056;3.656;2022-12-18T03:23:47;-3.50;99.90
27544;DHT22;17996;51.056;3.656;2022-12-18T03:26:16;-3.50;99.90
27544;DHT22;17996;51.056;3.656;2022-12-18T03:28:47;-3.50;99.90
27544;DHT22;17996;51.056;3.656;2022-12-18T03:31:16;-3.50;99.90
27544;DHT22;17996;51.056;3.656;2022-12-18T03:33:50;-3.50;99.90
27544;DHT22;17996;51.056;3.656;2022-12-18T03:36:17;-3.50;99.90
27544;DHT22;17996;51.056;3.656;2022-12-18T03:38:43;-3.50;99.90
27544;DHT22;17996;51.056;3.656;2022-12-18T03:44:11;-3.50;99.90
27544;DHT22;17996;51.056;3.656;2022-12-18T03:46:47;-3.50;99.90
27544;DHT22;17996;51.056;3.656;2022-12-18T03:49:35;-3.50;99.90
27544;DHT22;17996;51.056;3.656;2022-12-18T03:52:11;-3.50;99.90
27544;DHT22;17996;51.056;3.656;2022-12-18T03:54:38;-3.50;99.90
27544;DHT22;17996;51.056;3.656;2022-12-18T03:57:22;-3.50;99.90
27544;DHT22;17996;51.056;3.656;2022-12-18T03:59:55;-3.50;99.90
27544;DHT22;17996;51.056;3.656;2022-12-18T04:02:22;-3.50;99.90
27544;DHT22;17996;51.056;3.656;2022-12-18T04:04:55;-3.50;99.90
27544;DHT22;17996;51.056;3.656;2022-12-18T04:07:23;-3.50;99.90
27544;DHT22;17996;51.056;3.656;2022-12-18T04:09:51;-3.50;99.90
27544;DHT22;17996;51.056;3.656;2022-12-18T04:12:18;-3.50;99.90
27544;DHT22;17996;51.056;3.656;2022-12-18T04:14:44;-3.50;99.90
27544;DHT22;17996;51.056;3.656;2022-12-18T04:17:10;-3.50;99.90
27544;DHT22;17996;51.056;3.656;2022-12-18T04:19:36;-3.40;99.90
27544;DHT22;17996;51.056;3.656;2022-12-18T04:22:01;-3.50;99.90
27544;DHT22;17996;51.056;3.656;2022-12-18T04:24:27;-3.50;99.90
27544;DHT22;17996;51.056;3.656;2022-12-18T04:26:53;-3.40;99.90
27544;DHT22;17996;51.056;3.656;2022-12-18T04:29:18;-3.40;99.90
27544;DHT22;17996;51.056;3.656;2022-12-18T04:31:44;-3.40;99.90
27544;DHT22;17996;51.056;3.656;2022-12-18T04:34:09;-3.40;99.90
27544;DHT22;17996;51.056;3.656;2022-12-18T04:36:35;-3.40;99.90
27544;DHT22;17996;51.056;3.656;2022-12-18T04:39:01;-3.40;99.90
27544;DHT22;17996;51.056;3.656;2022-12-18T04:41:26;-3.30;99.90
27544;DHT22;17996;51.056;3.656;2022-12-18T04:43:52;-3.40;99.90
27544;DHT22;17996;51.056;3.656;2022-12-18T04:46:18;-3.30;99.90
27544;DHT22;17996;51.056;3.656;2022-12-18T04:48:45;-3.30;99.90
27544;DHT22;17996;51.056;3.656;2022-12-18T04:51:11;-3.40;99.90
27544;DHT22;17996;51.056;3.656;2022-12-18T04:53:37;-3.40;99.90
27544;DHT22;17996;51.056;3.656;2022-12-18T04:56:08;-3.40;99.90
27544;DHT22;17996;51.056;3.656;2022-12-18T04:58:35;-3.40;99.90
27544;DHT22;17996;51.056;3.656;2022-12-18T05:01:01;-3.40;99.90
27544;DHT22;17996;51.056;3.656;2022-12-18T05:03:27;-3.40;99.90
27544;DHT22;17996;51.056;3.656;2022-12-18T05:05:52;-3.40;99.90
27544;DHT22;17996;51.056;3.656;2022-12-18T05:08:18;-3.40;99.90
27544;DHT22;17996;51.056;3.656;2022-12-18T05:10:44;-3.40;99.90
27544;DHT22;17996;51.056;3.656;2022-12-18T05:13:10;-3.40;99.90
27544;DHT22;17996;51.056;3.656;2022-12-18T05:15:36;-3.40;99.90
27544;DHT22;17996;51.056;3.656;2022-12-18T05:18:02;-3.40;99.90
27544;DHT22;17996;51.056;3.656;2022-12-18T05:20:28;-3.40;99.90
27544;DHT22;17996;51.056;3.656;2022-12-18T05:22:54;-3.40;99.90
27544;DHT22;17996;51.056;3.656;2022-12-18T05:25:20;-3.40;99.90
27544;DHT22;17996;51.056;3.656;2022-12-18T05:27:47;-3.40;99.90
27544;DHT22;17996;51.056;3.656;2022-12-18T05:30:13;-3.40;99.90
27544;DHT22;17996;51.056;3.656;2022-12-18T05:32:39;-3.40;99.90
27544;DHT22;17996;51.056;3.656;2022-12-18T05:35:07;-3.40;99.90
27544;DHT22;17996;51.056;3.656;2022-12-18T05:37:33;-3.40;99.90
27544;DHT22;17996;51.056;3.656;2022-12-18T05:39:59;-3.40;99.90
27544;DHT22;17996;51.056;3.656;2022-12-18T05:42:24;-3.40;99.90
27544;DHT22;17996;51.056;3.656;2022-12-18T05:44:50;-3.40;99.90
27544;DHT22;17996;51.056;3.656;2022-12-18T05:47:16;-3.40;99.90
27544;DHT22;17996;51.056;3.656;2022-12-18T05:49:42;-3.40;99.90
27544;DHT22;17996;51.056;3.656;2022-12-18T05:52:07;-3.40;99.90
27544;DHT22;17996;51.056;3.656;2022-12-18T05:54:34;-3.40;99.90
27544;DHT22;17996;51.056;3.656;2022-12-18T05:56:59;-3.40;99.90
27544;DHT22;17996;51.056;3.656;2022-12-18T05:59:25;-3.40;99.90
27544;DHT22;17996;51.056;3.656;2022-12-18T06:01:51;-3.40;99.90
27544;DHT22;17996;51.056;3.656;2022-12-18T06:04:17;-3.40;99.90
27544;DHT22;17996;51.056;3.656;2022-12-18T06:06:42;-3.40;99.90
27544;DHT22;17996;51.056;3.656;2022-12-18T06:09:08;-3.40;99.90
27544;DHT22;17996;51.056;3.656;2022-12-18T06:11:38;-3.40;99.90
27544;DHT22;17996;51.056;3.656;2022-12-18T06:14:04;-3.40;99.90
27544;DHT22;17996;51.056;3.656;2022-12-18T06:16:31;-3.40;99.90
27544;DHT22;17996;51.056;3.656;2022-12-18T06:19:02;-3.40;99.90
27544;DHT22;17996;51.056;3.656;2022-12-18T06:21:28;-3.40;99.90
27544;DHT22;17996;51.056;3.656;2022-12-18T06:23:54;-3.40;99.90
27544;DHT22;17996;51.056;3.656;2022-12-18T06:26:20;-3.40;99.90
27544;DHT22;17996;51.056;3.656;2022-12-18T06:28:45;-3.50;99.90
27544;DHT22;17996;51.056;3.656;2022-12-18T06:31:11;-3.50;99.90
27544;DHT22;17996;51.056;3.656;2022-12-18T06:33:37;-3.50;99.90
27544;DHT22;17996;51.056;3.656;2022-12-18T06:36:06;-3.50;99.90
27544;DHT22;17996;51.056;3.656;2022-12-18T06:38:33;-3.50;99.90
27544;DHT22;17996;51.056;3.656;2022-12-18T06:40:59;-3.50;99.90
27544;DHT22;17996;51.056;3.656;2022-12-18T06:43:25;-3.50;99.90
27544;DHT22;17996;51.056;3.656;2022-12-18T06:45:51;-3.40;99.90
27544;DHT22;17996;51.056;3.656;2022-12-18T06:48:19;-3.40;99.90
27544;DHT22;17996;51.056;3.656;2022-12-18T06:50:45;-3.40;99.90
27544;DHT22;17996;51.056;3.656;2022-12-18T06:53:11;-3.40;99.90
27544;DHT22;17996;51.056;3.656;2022-12-18T06:55:38;-3.40;99.90
27544;DHT22;17996;51.056;3.656;2022-12-18T06:58:03;-3.40;99.90
27544;DHT22;17996;51.056;3.656;2022-12-18T07:00:29;-3.40;99.90
27544;DHT22;17996;51.056;3.656;2022-12-18T07:02:55;-3.40;99.90
27544;DHT22;17996;51.056;3.656;2022-12-18T07:05:20;-3.40;99.90
27544;DHT22;17996;51.056;3.656;2022-12-18T07:07:46;-3.40;99.90
27544;DHT22;17996;51.056;3.656;2022-12-18T07:10:11;-3.40;99.90
27544;DHT22;17996;51.056;3.656;2022-12-18T07:12:37;-3.40;99.90
27544;DHT22;17996;51.056;3.656;2022-12-18T07:15:03;-3.40;99.90
27544;DHT22;17996;51.056;3.656;2022-12-18T07:17:29;-3.40;99.90
27544;DHT22;17996;51.056;3.656;2022-12-18T07:19:55;-3.40;99.90
27544;DHT22;17996;51.056;3.656;2022-12-18T07:22:21;-3.40;99.90
27544;DHT22;17996;51.056;3.656;2022-12-18T07:24:46;-3.40;99.90
27544;DHT22;17996;51.056;3.656;2022-12-18T07:27:12;-3.40;99.90
27544;DHT22;17996;51.056;3.656;2022-12-18T07:29:38;-3.40;99.90
27544;DHT22;17996;51.056;3.656;2022-12-18T07:32:04;-3.40;99.90
27544;DHT22;17996;51.056;3.656;2022-12-18T07:34:29;-3.40;99.90
27544;DHT22;17996;51.056;3.656;2022-12-18T07:36:56;-3.40;99.90
27544;DHT22;17996;51.056;3.656;2022-12-18T07:39:21;-3.40;99.90
27544;DHT22;17996;51.056;3.656;2022-12-18T07:41:48;-3.40;99.90
27544;DHT22;17996;51.056;3.656;2022-12-18T07:44:34;-3.40;99.90
27544;DHT22;17996;51.056;3.656;2022-12-18T07:46:59;-3.40;99.90
27544;DHT22;17996;51.056;3.656;2022-12-18T07:49:25;-3.40;99.90
27544;DHT22;17996;51.056;3.656;2022-12-18T07:51:56;-3.40;99.90
27544;DHT22;17996;51.056;3.656;2022-12-18T07:54:24;-3.40;99.90
27544;DHT22;17996;51.056;3.656;2022-12-18T07:56:50;-3.30;99.90
27544;DHT22;17996;51.056;3.656;2022-12-18T07:59:16;-3.40;99.90
27544;DHT22;17996;51.056;3.656;2022-12-18T08:01:42;-3.30;99.90
27544;DHT22;17996;51.056;3.656;2022-12-18T08:04:08;-3.30;99.90
27544;DHT22;17996;51.056;3.656;2022-12-18T08:06:33;-3.30;99.90
27544;DHT22;17996;51.056;3.656;2022-12-18T08:08:59;-3.30;99.90
27544;DHT22;17996;51.056;3.656;2022-12-18T08:11:26;-3.20;99.90
27544;DHT22;17996;51.056;3.656;2022-12-18T08:13:52;-3.20;99.90
27544;DHT22;17996;51.056;3.656;2022-12-18T08:16:19;-3.20;99.90
27544;DHT22;17996;51.056;3.656;2022-12-18T08:18:45;-3.10;99.90
27544;DHT22;17996;51.056;3.656;2022-12-18T08:21:16;-3.10;99.90
27544;DHT22;17996;51.056;3.656;2022-12-18T08:23:43;-3.10;99.90
27544;DHT22;17996;51.056;3.656;2022-12-18T08:26:10;-3.00;99.90
27544;DHT22;17996;51.056;3.656;2022-12-18T08:28:36;-2.90;99.90
27544;DHT22;17996;51.056;3.656;2022-12-18T08:31:02;-2.80;99.90
27544;DHT22;17996;51.056;3.656;2022-12-18T08:33:27;-2.70;99.90
27544;DHT22;17996;51.056;3.656;2022-12-18T08:35:53;-2.70;99.90
27544;DHT22;17996;51.056;3.656;2022-12-18T08:38:19;-2.60;99.90
27544;DHT22;17996;51.056;3.656;2022-12-18T08:40:44;-2.50;99.90
27544;DHT22;17996;51.056;3.656;2022-12-18T08:43:10;-2.40;99.90
27544;DHT22;17996;51.056;3.656;2022-12-18T08:45:55;-2.40;99.90
27544;DHT22;17996;51.056;3.656;2022-12-18T08:48:20;-2.30;99.90
27544;DHT22;17996;51.056;3.656;2022-12-18T08:51:00;-2.20;99.90
27544;DHT22;17996;51.056;3.656;2022-12-18T08:53:26;-2.20;99.90
27544;DHT22;17996;51.056;3.656;2022-12-18T08:55:52;-2.10;99.90
27544;DHT22;17996;51.056;3.656;2022-12-18T08:58:18;-2.10;99.90
27544;DHT22;17996;51.056;3.656;2022-12-18T09:00:46;-2.00;99.90
27544;DHT22;17996;51.056;3.656;2022-12-18T09:03:13;-2.00;99.90
27544;DHT22;17996;51.056;3.656;2022-12-18T09:05:39;-1.90;99.90
27544;DHT22;17996;51.056;3.656;2022-12-18T09:08:05;-1.90;99.90
27544;DHT22;17996;51.056;3.656;2022-12-18T09:10:31;-1.80;99.90
27544;DHT22;17996;51.056;3.656;2022-12-18T09:12:57;-1.80;99.90
27544;DHT22;17996;51.056;3.656;2022-12-18T09:15:23;-1.60;99.90
27544;DHT22;17996;51.056;3.656;2022-12-18T09:17:48;-1.60;99.90
27544;DHT22;17996;51.056;3.656;2022-12-18T09:20:16;-1.60;99.90
27544;DHT22;17996;51.056;3.656;2022-12-18T09:22:42;-1.50;99.90
27544;DHT22;17996;51.056;3.656;2022-12-18T09:25:08;-1.40;99.90
27544;DHT22;17996;51.056;3.656;2022-12-18T09:27:34;-1.40;99.90
27544;DHT22;17996;51.056;3.656;2022-12-18T09:30:00;-1.40;99.90
27544;DHT22;17996;51.056;3.656;2022-12-18T09:32:26;-1.30;99.90
27544;DHT22;17996;51.056;3.656;2022-12-18T09:34:53;-1.30;99.90
27544;DHT22;17996;51.056;3.656;2022-12-18T09:37:18;-1.20;99.90
27544;DHT22;17996;51.056;3.656;2022-12-18T09:39:44;-1.20;99.90
27544;DHT22;17996;51.056;3.656;2022-12-18T09:42:19;-1.10;99.90
27544;DHT22;17996;51.056;3.656;2022-12-18T09:44:50;-1.10;99.90
27544;DHT22;17996;51.056;3.656;2022-12-18T09:47:27;-1.00;99.90
27544;DHT22;17996;51.056;3.656;2022-12-18T09:50:00;-1.00;99.90
27544;DHT22;17996;51.056;3.656;2022-12-18T09:52:36;-0.90;99.90
27544;DHT22;17996;51.056;3.656;2022-12-18T09:58:02;-0.90;99.90
27544;DHT22;17996;51.056;3.656;2022-12-18T10:00:30;-0.80;99.90
27544;DHT22;17996;51.056;3.656;2022-12-18T10:03:13;-0.80;99.90
27544;DHT22;17996;51.056;3.656;2022-12-18T10:08:24;-0.70;99.90
27544;DHT22;17996;51.056;3.656;2022-12-18T10:11:01;-0.60;99.90
27544;DHT22;17996;51.056;3.656;2022-12-18T10:13:37;-0.60;99.90
27544;DHT22;17996;51.056;3.656;2022-12-18T10:24:17;-0.50;99.90
27544;DHT22;17996;51.056;3.656;2022-12-18T10:26:46;-0.50;99.90
27544;DHT22;17996;51.056;3.656;2022-12-18T10:29:14;-0.50;99.90
27544;DHT22;17996;51.056;3.656;2022-12-18T10:31:40;-0.40;99.90
27544;DHT22;17996;51.056;3.656;2022-12-18T10:34:25;-0.40;99.90
27544;DHT22;17996;51.056;3.656;2022-12-18T10:36:51;-0.20;99.90
27544;DHT22;17996;51.056;3.656;2022-12-18T10:39:22;-0.30;99.90
27544;DHT22;17996;51.056;3.656;2022-12-18T10:41:48;-0.30;99.90
27544;DHT22;17996;51.056;3.656;2022-12-18T10:44:18;0.00;99.90
27544;DHT22;17996;51.056;3.656;2022-12-18T10:46:55;-0.20;99.90
27544;DHT22;17996;51.056;3.656;2022-12-18T10:49:30;-0.20;99.90
27544;DHT22;17996;51.056;3.656;2022-12-18T10:57:39;-0.10;99.90
27544;DHT22;17996;51.056;3.656;2022-12-18T11:00:28;0.00;99.90
27544;DHT22;17996;51.056;3.656;2022-12-18T11:02:55;0.00;99.90
27544;DHT22;17996;51.056;3.656;2022-12-18T11:05:27;0.20;99.90
27544;DHT22;17996;51.056;3.656;2022-12-18T11:07:54;0.10;99.90
27544;DHT22;17996;51.056;3.656;2022-12-18T11:10:25;0.10;99.90
27544;DHT22;17996;51.056;3.656;2022-12-18T11:12:52;0.10;99.90
27544;DHT22;17996;51.056;3.656;2022-12-18T11:15:20;0.10;99.90
27544;DHT22;17996;51.056;3.656;2022-12-18T11:17:47;0.10;99.90
27544;DHT22;17996;51.056;3.656;2022-12-18T11:20:34;0.10;99.90
27544;DHT22;17996;51.056;3.656;2022-12-18T11:23:05;0.10;99.90
27544;DHT22;17996;51.056;3.656;2022-12-18T11:25:36;0.10;99.90
27544;DHT22;17996;51.056;3.656;2022-12-18T11:28:35;0.20;99.90
27544;DHT22;17996;51.056;3.656;2022-12-18T11:31:21;0.20;99.90
27544;DHT22;17996;51.056;3.656;2022-12-18T11:36:20;0.20;99.90
27544;DHT22;17996;51.056;3.656;2022-12-18T11:38:47;0.30;99.90
27544;DHT22;17996;51.056;3.656;2022-12-18T11:44:15;0.40;99.90
27544;DHT22;17996;51.056;3.656;2022-12-18T11:47:03;0.30;99.90
27544;DHT22;17996;51.056;3.656;2022-12-18T11:49:34;0.30;99.90
27544;DHT22;17996;51.056;3.656;2022-12-18T11:52:07;0.40;99.90
27544;DHT22;17996;51.056;3.656;2022-12-18T11:54:35;0.40;99.90
27544;DHT22;17996;51.056;3.656;2022-12-18T11:57:20;0.40;99.90
27544;DHT22;17996;51.056;3.656;2022-12-18T12:00:11;0.50;99.90
27544;DHT22;17996;51.056;3.656;2022-12-18T12:05:39;0.50;99.90
27544;DHT22;17996;51.056;3.656;2022-12-18T12:16:03;0.60;99.90
27544;DHT22;17996;51.056;3.656;2022-12-18T12:21:46;0.70;99.90
27544;DHT22;17996;51.056;3.656;2022-12-18T12:29:46;0.80;99.90
27544;DHT22;17996;51.056;3.656;2022-12-18T12:35:22;0.90;99.90
27544;DHT22;17996;51.056;3.656;2022-12-18T12:40:53;1.00;99.90
27544;DHT22;17996;51.056;3.656;2022-12-18T12:43:44;0.90;99.90
27544;DHT22;17996;51.056;3.656;2022-12-18T12:46:14;1.00;99.90
27544;DHT22;17996;51.056;3.656;2022-12-18T12:51:24;1.10;99.90
27544;DHT22;17996;51.056;3.656;2022-12-18T12:53:50;1.10;99.90
27544;DHT22;17996;51.056;3.656;2022-12-18T12:56:19;1.10;99.90
27544;DHT22;17996;51.056;3.656;2022-12-18T12:59:14;1.20;99.90
27544;DHT22;17996;51.056;3.656;2022-12-18T13:01:59;1.20;99.90
27544;DHT22;17996;51.056;3.656;2022-12-18T13:04:49;1.20;99.90
27544;DHT22;17996;51.056;3.656;2022-12-18T13:07:39;1.10;99.90
27544;DHT22;17996;51.056;3.656;2022-12-18T13:12:56;1.20;99.90
27544;DHT22;17996;51.056;3.656;2022-12-18T13:15:32;1.10;99.90
27544;DHT22;17996;51.056;3.656;2022-12-18T13:18:24;1.10;99.90
27544;DHT22;17996;51.056;3.656;2022-12-18T13:23:36;1.10;99.90
27544;DHT22;17996;51.056;3.656;2022-12-18T13:36:45;1.00;99.90
27544;DHT22;17996;51.056;3.656;2022-12-18T13:41:41;1.00;99.90
27544;DHT22;17996;51.056;3.656;2022-12-18T13:44:34;1.00;99.90
27544;DHT22;17996;51.056;3.656;2022-12-18T13:47:03;1.10;99.90
27544;DHT22;17996;51.056;3.656;2022-12-18T13:49:39;1.00;99.90
27544;DHT22;17996;51.056;3.656;2022-12-18T13:52:23;1.10;99.90
27544;DHT22;17996;51.056;3.656;2022-12-18T13:55:00;1.10;99.90
27544;DHT22;17996;51.056;3.656;2022-12-18T13:57:34;1.10;99.90
27544;DHT22;17996;51.056;3.656;2022-12-18T14:00:33;1.20;99.90
27544;DHT22;17996;51.056;3.656;2022-12-18T14:02:59;1.10;99.90
27544;DHT22;17996;51.056;3.656;2022-12-18T14:05:34;1.00;99.90
27544;DHT22;17996;51.056;3.656;2022-12-18T14:08:11;1.20;99.90
27544;DHT22;17996;51.056;3.656;2022-12-18T14:10:44;1.00;99.90
27544;DHT22;17996;51.056;3.656;2022-12-18T14:13:15;1.00;99.90
27544;DHT22;17996;51.056;3.656;2022-12-18T14:15:46;1.00;99.90
27544;DHT22;17996;51.056;3.656;2022-12-18T14:18:36;1.00;99.90
27544;DHT22;17996;51.056;3.656;2022-12-18T14:21:04;1.10;99.90
27544;DHT22;17996;51.056;3.656;2022-12-18T14:23:41;1.00;99.90
27544;DHT22;17996;51.056;3.656;2022-12-18T14:26:27;0.90;99.90
27544;DHT22;17996;51.056;3.656;2022-12-18T14:28:58;1.00;99.90
27544;DHT22;17996;51.056;3.656;2022-12-18T14:31:28;0.90;99.90
27544;DHT22;17996;51.056;3.656;2022-12-18T14:33:55;1.00;99.90
27544;DHT22;17996;51.056;3.656;2022-12-18T14:36:26;1.00;99.90
27544;DHT22;17996;51.056;3.656;2022-12-18T14:38:57;1.00;99.90
27544;DHT22;17996;51.056;3.656;2022-12-18T14:41:23;1.00;99.90
27544;DHT22;17996;51.056;3.656;2022-12-18T14:43:52;1.10;99.90
27544;DHT22;17996;51.056;3.656;2022-12-18T14:46:41;1.00;99.90
27544;DHT22;17996;51.056;3.656;2022-12-18T14:49:33;1.00;99.90
27544;DHT22;17996;51.056;3.656;2022-12-18T14:52:00;1.00;99.90
27544;DHT22;17996;51.056;3.656;2022-12-18T14:54:28;1.00;99.90
27544;DHT22;17996;51.056;3.656;2022-12-18T14:57:21;0.90;99.90
27544;DHT22;17996;51.056;3.656;2022-12-18T14:59:47;1.00;99.90
27544;DHT22;17996;51.056;3.656;2022-12-18T15:04:45;1.00;99.90
27544;DHT22;17996;51.056;3.656;2022-12-18T15:09:37;1.00;99.90
27544;DHT22;17996;51.056;3.656;2022-12-18T15:12:04;0.90;99.90
27544;DHT22;17996;51.056;3.656;2022-12-18T15:14:48;0.90;99.90
27544;DHT22;17996;51.056;3.656;2022-12-18T15:17:19;1.00;99.90
27544;DHT22;17996;51.056;3.656;2022-12-18T15:19:47;1.00;99.90
27544;DHT22;17996;51.056;3.656;2022-12-18T15:22:28;1.00;99.90
27544;DHT22;17996;51.056;3.656;2022-12-18T15:24:56;1.00;99.90
27544;DHT22;17996;51.056;3.656;2022-12-18T15:27:45;1.20;99.90
27544;DHT22;17996;51.056;3.656;2022-12-18T15:30:16;1.00;99.90
27544;DHT22;17996;51.056;3.656;2022-12-18T15:32:43;1.00;99.90
27544;DHT22;17996;51.056;3.656;2022-12-18T15:35:23;1.00;99.90
27544;DHT22;17996;51.056;3.656;2022-12-18T15:37:50;1.00;99.90
27544;DHT22;17996;51.056;3.656;2022-12-18T15:40:22;1.00;99.90
27544;DHT22;17996;51.056;3.656;2022-12-18T15:42:53;1.00;99.90
27544;DHT22;17996;51.056;3.656;2022-12-18T15:45:38;1.10;99.90
27544;DHT22;17996;51.056;3.656;2022-12-18T15:48:24;1.20;99.90
27544;DHT22;17996;51.056;3.656;2022-12-18T15:50:51;1.10;99.90
27544;DHT22;17996;51.056;3.656;2022-12-18T15:53:19;1.00;99.90
27544;DHT22;17996;51.056;3.656;2022-12-18T15:55:45;1.10;99.90
27544;DHT22;17996;51.056;3.656;2022-12-18T15:58:47;1.10;99.90
27544;DHT22;17996;51.056;3.656;2022-12-18T16:01:13;1.10;99.90
27544;DHT22;17996;51.056;3.656;2022-12-18T16:03:39;1.10;99.90
27544;DHT22;17996;51.056;3.656;2022-12-18T16:06:05;1.10;99.90
27544;DHT22;17996;51.056;3.656;2022-12-18T16:08:31;1.10;99.90
27544;DHT22;17996;51.056;3.656;2022-12-18T16:10:57;1.10;99.90
27544;DHT22;17996;51.056;3.656;2022-12-18T16:13:23;1.10;99.90
27544;DHT22;17996;51.056;3.656;2022-12-18T16:15:49;1.10;99.90
27544;DHT22;17996;51.056;3.656;2022-12-18T16:18:15;1.20;99.90
27544;DHT22;17996;51.056;3.656;2022-12-18T16:20:41;1.10;99.90
27544;DHT22;17996;51.056;3.656;2022-12-18T16:23:07;1.20;99.90
27544;DHT22;17996;51.056;3.656;2022-12-18T16:25:33;1.20;99.90
27544;DHT22;17996;51.056;3.656;2022-12-18T16:27:58;1.20;99.90
27544;DHT22;17996;51.056;3.656;2022-12-18T16:30:26;1.20;99.90
27544;DHT22;17996;51.056;3.656;2022-12-18T16:32:57;1.30;99.90
27544;DHT22;17996;51.056;3.656;2022-12-18T16:35:23;1.20;99.90
27544;DHT22;17996;51.056;3.656;2022-12-18T16:37:49;1.20;99.90
27544;DHT22;17996;51.056;3.656;2022-12-18T16:40:16;1.20;99.90
27544;DHT22;17996;51.056;3.656;2022-12-18T16:42:44;1.20;99.90
27544;DHT22;17996;51.056;3.656;2022-12-18T16:45:13;1.30;99.90
27544;DHT22;17996;51.056;3.656;2022-12-18T16:47:39;1.30;99.90
27544;DHT22;17996;51.056;3.656;2022-12-18T16:50:06;1.30;99.90
27544;DHT22;17996;51.056;3.656;2022-12-18T16:52:33;1.30;99.90
27544;DHT22;17996;51.056;3.656;2022-12-18T16:54:59;1.40;99.90
27544;DHT22;17996;51.056;3.656;2022-12-18T16:57:25;1.40;99.90
27544;DHT22;17996;51.056;3.656;2022-12-18T16:59:51;1.40;99.90
27544;DHT22;17996;51.056;3.656;2022-12-18T17:02:19;1.40;99.90
27544;DHT22;17996;51.056;3.656;2022-12-18T17:04:45;1.40;99.90
27544;DHT22;17996;51.056;3.656;2022-12-18T17:07:11;1.40;99.90
27544;DHT22;17996;51.056;3.656;2022-12-18T17:09:38;1.40;99.90
27544;DHT22;17996;51.056;3.656;2022-12-18T17:12:04;1.40;99.90
27544;DHT22;17996;51.056;3.656;2022-12-18T17:14:30;1.40;99.90
27544;DHT22;17996;51.056;3.656;2022-12-18T17:16:56;1.40;99.90
27544;DHT22;17996;51.056;3.656;2022-12-18T17:19:23;1.40;99.90
27544;DHT22;17996;51.056;3.656;2022-12-18T17:21:50;1.50;99.90
27544;DHT22;17996;51.056;3.656;2022-12-18T17:24:16;1.40;99.90
27544;DHT22;17996;51.056;3.656;2022-12-18T17:26:42;1.50;99.90
27544;DHT22;17996;51.056;3.656;2022-12-18T17:29:11;1.50;99.90
27544;DHT22;17996;51.056;3.656;2022-12-18T17:31:38;1.50;99.90